Comandante Luis Piedra Buena, Argentina
Current Conditions -  °F | °C
As of 10:00 PM on Friday 24 Oct 2014 (Local Time) from SAWG Reporting Station
Clear Clear  
Wind Chill: 11°   Ceiling: Unl
Heat Index: 11°   Visibility: 6mi
Dew Point:   Wind: 14mph
Humidity: 50%   Direction: 270°W
Pressure: 29.74"   Gusts: NA
Location:  49.98°S, 68.9°W
Report Text: SAWG 250100Z 27012KT CAVOK 11/01 Q1007
Loading
Personal Weather Stations






























Interactive Weather Map
Tropical Storm Tracking
New forecast layout! Learn more

10-Day Weather Forecast

Advertisements
Track Severe Weather on mobile